Milei Airstrip

AYEI · Northern Province, Papua-Neuguinea

2. Oktober 2022

Uhrzeit Code Wetter Temp. Sichtweite Wolkendecke Wind METAR/SPECI
18:00
V
23 °C 10 km+ 4.000 ft 090° 090° 8 kt METAR AYMH 020800Z 09008KT 9999 HZ BKN040 23/14 Q1018
17:00
V
24 °C 10 km+ 4.000 ft 090° 090° 10 kt METAR AYMH 020700Z 09010KT 9999 HZ BKN040 24/14 Q1017
16:00
V
25 °C 10 km+ 4.000 ft 090° 090° 10 kt METAR AYMH 020600Z 09010KT 9999 HZ BKN040 25/14 Q1017
15:00
V
24 °C 10 km+ - 330° 330° 8 kt METAR AYMH 020500Z 33008KT 9999 HZ SCT040 24/14 Q1017
14:00
V
25 °C 10 km+ - 130° 130° 8 kt METAR AYMH 020400Z 13008KT 9999 HZ SCT040 25/13 Q1017
13:00
V
24 °C 10 km+ - 060° 060° 8 kt METAR AYMH 020300Z 06008KT 9999 HZ SCT040 24/14 Q1018
12:00
V
24 °C 10 km+ - 090° 090° 6 kt METAR AYMH 020200Z 09006KT 9999 HZ SCT040 24/13 Q1019=
11:00
V
23 °C 10 km+ - Var Var 4 kt METAR AYMH 020100Z VRB04KT 9999 HZ FEW040 23/14 Q1020
10:00
V
21 °C 10 km+ - Var Var 4 kt METAR AYMH 020000Z VRB04KT 9999 HZ FEW030 21/13 Q1021
09:00
V
19 °C 10 km+ - Var Var 4 kt METAR AYMH 012300Z VRB04KT 9999 HZ FEW030 19/14 Q1022
08:00
V
17 °C 10 km+ - Var Var 2 kt METAR AYMH 012200Z VRB02KT 9999 HZ FEW030 17/14 Q1022
07:00
V
15 °C 10 km+ - Var Var 2 kt METAR AYMH 012100Z VRB02KT 9999 HZ FEW030 15/14 Q1021
06:00
V
14 °C 10 km+ - Var Var 2 kt METAR AYMH 012000Z VRB02KT 9999 HZ SCT030 14/13 Q1020
05:00
M
14 °C 10 km+ 1.500 ft Var 000° 0 kt METAR AYMH 011900Z 00000KT 9999 FG BKN015 14/13 Q1020

1. Oktober 2022

Uhrzeit Code Wetter Temp. Sichtweite Wolkendecke Wind METAR/SPECI
19:00
V
17 °C 10 km+ - 170° 170° 8 kt METAR AYMH 010900Z 17008KT 9999 HZ SCT040 17/15 Q1019
18:00
V
17 °C 10 km+ - 170° 170° 8 kt METAR AYMH 010800Z 17008KT 9999 HZ SCT040 17/15 Q1018=
17:00
V
18 °C 10 km+ 4.000 ft 150° 150° 10 kt METAR AYMH 010700Z 15010KT 9999 HZ BKN040 18/15 Q1018 RMK
16:00
V
21 °C 10 km+ 3.000 ft 180° 180° 15 kt METAR AYMH 010600Z 18015KT 9999 HZ BKN030 21/15 Q1017 RMK
15:00
V
26 °C 10 km+ - 170° 170° 8 kt METAR AYMH 010500Z 17008KT 9999 HZ SCT040 26/15 Q1016
14:00
V
27 °C 10 km+ - 120° 120° 7 kt METAR AYMH 010400Z 12007KT 9999 HZ SCT040 27/14 Q1017
13:00
V
26 °C 10 km+ - 090° 090° 8 kt METAR AYMH 010300Z 09008KT 9999 HZ SCT040 26/13 Q1018
12:00
V
25 °C 10 km+ - 090° 090° 8 kt METAR AYMH 010200Z 09008KT 9999 HZ SCT040 25/15 Q1019=
11:00
V
23 °C 10 km+ - Var Var 4 kt METAR AYMH 010100Z VRB04KT 9999 FEW040 23/15 Q1021=
10:00
V
21 °C 10 km+ - Var Var 4 kt METAR AYMH 010000Z VRB04KT 9999 HZ SCT040 21/15 Q1022
09:00
V
20 °C 10 km+ - Var Var 4 kt METAR AYMH 302300Z VRB04KT 9999 HZ SCT030 20/15 Q1023
08:00
V
17 °C 10 km+ - Var 000° 0 kt METAR AYMH 302200Z 00000KT 9999 HZ FEW040 17/15 Q1023
07:00
V
15 °C 10 km+ - Var 000° 0 kt METAR AYMH 302100Z 00000KT 9999 HZ SCT030 15/14 Q1022
06:00
M
14 °C 10 km+ 2.000 ft Var 000° 0 kt METAR AYMH 302000Z 00000KT 9999 FG BKN020 14/14 Q1021=
05:00
M
13 °C 10 km+ 2.000 ft Var 000° 0 kt METAR AYMH 301900Z 00000KT 9999 FG BKN020 13/12 Q1020
Ältere Daten

Wir und Dritte verfolgen dein Internetverhalten auf unserer Website mit Cookies. Wenn du fortfährst, gehen wir davon aus, dass du mit unserer Cookie-Richtlinie einverstanden bist. Mehr erfahren